sensor_id;sensor_type;location;lat;lon;timestamp;temperature;humidity
10678;DHT22;5387;48.722;9.110;2023-03-03T00:00:05;2.40;99.90
10678;DHT22;5387;48.722;9.110;2023-03-03T00:02:32;2.40;99.90
10678;DHT22;5387;48.722;9.110;2023-03-03T00:04:59;2.30;99.90
10678;DHT22;5387;48.722;9.110;2023-03-03T00:07:27;2.30;99.90
10678;DHT22;5387;48.722;9.110;2023-03-03T00:09:54;2.30;99.90
10678;DHT22;5387;48.722;9.110;2023-03-03T00:12:24;2.20;99.90
10678;DHT22;5387;48.722;9.110;2023-03-03T00:14:51;2.30;99.90
10678;DHT22;5387;48.722;9.110;2023-03-03T00:17:21;2.20;99.90
10678;DHT22;5387;48.722;9.110;2023-03-03T00:19:48;2.20;99.90
10678;DHT22;5387;48.722;9.110;2023-03-03T00:22:24;2.10;99.90
10678;DHT22;5387;48.722;9.110;2023-03-03T00:24:54;2.00;99.90
10678;DHT22;5387;48.722;9.110;2023-03-03T00:27:26;2.00;99.90
10678;DHT22;5387;48.722;9.110;2023-03-03T00:29:56;1.80;99.90
10678;DHT22;5387;48.722;9.110;2023-03-03T00:32:25;1.80;99.90
10678;DHT22;5387;48.722;9.110;2023-03-03T00:34:53;1.70;99.90
10678;DHT22;5387;48.722;9.110;2023-03-03T00:37:28;1.70;99.90
10678;DHT22;5387;48.722;9.110;2023-03-03T00:40:18;1.60;99.90
10678;DHT22;5387;48.722;9.110;2023-03-03T00:42:48;1.60;99.90
10678;DHT22;5387;48.722;9.110;2023-03-03T00:45:30;1.50;99.90
10678;DHT22;5387;48.722;9.110;2023-03-03T00:48:15;1.40;99.90
10678;DHT22;5387;48.722;9.110;2023-03-03T00:50:44;1.30;99.90
10678;DHT22;5387;48.722;9.110;2023-03-03T00:53:13;1.20;99.90
10678;DHT22;5387;48.722;9.110;2023-03-03T00:55:43;1.20;99.90
10678;DHT22;5387;48.722;9.110;2023-03-03T00:58:10;1.10;99.90
10678;DHT22;5387;48.722;9.110;2023-03-03T01:00:38;1.00;99.90
10678;DHT22;5387;48.722;9.110;2023-03-03T01:03:13;0.90;99.90
10678;DHT22;5387;48.722;9.110;2023-03-03T01:05:40;0.90;99.90
10678;DHT22;5387;48.722;9.110;2023-03-03T01:08:07;0.80;99.90
10678;DHT22;5387;48.722;9.110;2023-03-03T01:10:37;0.70;99.90
10678;DHT22;5387;48.722;9.110;2023-03-03T01:13:06;0.70;99.90
10678;DHT22;5387;48.722;9.110;2023-03-03T01:15:34;0.60;99.90
10678;DHT22;5387;48.722;9.110;2023-03-03T01:18:01;0.50;99.90
10678;DHT22;5387;48.722;9.110;2023-03-03T01:20:28;0.50;99.90
10678;DHT22;5387;48.722;9.110;2023-03-03T01:22:54;0.40;99.90
10678;DHT22;5387;48.722;9.110;2023-03-03T01:25:21;0.40;99.90
10678;DHT22;5387;48.722;9.110;2023-03-03T01:27:48;0.30;99.90
10678;DHT22;5387;48.722;9.110;2023-03-03T01:30:16;0.20;99.90
10678;DHT22;5387;48.722;9.110;2023-03-03T01:32:43;0.20;99.90
10678;DHT22;5387;48.722;9.110;2023-03-03T01:35:10;0.10;99.90
10678;DHT22;5387;48.722;9.110;2023-03-03T01:37:37;0.10;99.90
10678;DHT22;5387;48.722;9.110;2023-03-03T01:40:06;0.10;99.90
10678;DHT22;5387;48.722;9.110;2023-03-03T01:42:33;0.00;99.90
10678;DHT22;5387;48.722;9.110;2023-03-03T01:45:20;-0.10;99.90
10678;DHT22;5387;48.722;9.110;2023-03-03T01:47:51;-0.10;99.90
10678;DHT22;5387;48.722;9.110;2023-03-03T01:50:35;-0.20;99.90
10678;DHT22;5387;48.722;9.110;2023-03-03T01:53:05;-0.10;99.90
10678;DHT22;5387;48.722;9.110;2023-03-03T01:55:34;-0.20;99.90
10678;DHT22;5387;48.722;9.110;2023-03-03T01:58:04;-0.10;99.90
10678;DHT22;5387;48.722;9.110;2023-03-03T02:00:33;-0.10;99.90
10678;DHT22;5387;48.722;9.110;2023-03-03T02:03:01;-0.20;99.90
10678;DHT22;5387;48.722;9.110;2023-03-03T02:05:29;-0.20;99.90
10678;DHT22;5387;48.722;9.110;2023-03-03T02:07:55;-0.30;99.90
10678;DHT22;5387;48.722;9.110;2023-03-03T02:10:23;-0.30;99.90
10678;DHT22;5387;48.722;9.110;2023-03-03T02:12:51;-0.30;99.90
10678;DHT22;5387;48.722;9.110;2023-03-03T02:15:21;-0.30;99.90
10678;DHT22;5387;48.722;9.110;2023-03-03T02:17:52;-0.30;99.90
10678;DHT22;5387;48.722;9.110;2023-03-03T02:20:35;-0.40;99.90
10678;DHT22;5387;48.722;9.110;2023-03-03T02:23:05;-0.40;99.90
10678;DHT22;5387;48.722;9.110;2023-03-03T02:25:38;-0.40;99.90
10678;DHT22;5387;48.722;9.110;2023-03-03T02:28:08;-0.50;99.90
10678;DHT22;5387;48.722;9.110;2023-03-03T02:30:36;-0.40;99.90
10678;DHT22;5387;48.722;9.110;2023-03-03T02:33:04;-0.40;99.90
10678;DHT22;5387;48.722;9.110;2023-03-03T02:35:33;-0.50;99.90
10678;DHT22;5387;48.722;9.110;2023-03-03T02:38:06;-0.60;99.90
10678;DHT22;5387;48.722;9.110;2023-03-03T02:40:37;-0.50;99.90
10678;DHT22;5387;48.722;9.110;2023-03-03T02:43:07;-0.50;99.90
10678;DHT22;5387;48.722;9.110;2023-03-03T02:45:41;-0.50;99.90
10678;DHT22;5387;48.722;9.110;2023-03-03T02:48:08;-0.40;99.90
10678;DHT22;5387;48.722;9.110;2023-03-03T02:50:35;-0.30;99.90
10678;DHT22;5387;48.722;9.110;2023-03-03T02:53:02;-0.30;99.90
10678;DHT22;5387;48.722;9.110;2023-03-03T02:55:28;-0.20;99.90
10678;DHT22;5387;48.722;9.110;2023-03-03T02:57:56;-0.10;99.90
10678;DHT22;5387;48.722;9.110;2023-03-03T03:00:24;0.00;99.90
10678;DHT22;5387;48.722;9.110;2023-03-03T03:02:51;0.00;99.90
10678;DHT22;5387;48.722;9.110;2023-03-03T03:05:18;0.10;99.90
10678;DHT22;5387;48.722;9.110;2023-03-03T03:07:44;0.30;99.90
10678;DHT22;5387;48.722;9.110;2023-03-03T03:10:11;0.30;99.90
10678;DHT22;5387;48.722;9.110;2023-03-03T03:12:38;0.40;99.90
10678;DHT22;5387;48.722;9.110;2023-03-03T03:15:05;0.50;99.90
10678;DHT22;5387;48.722;9.110;2023-03-03T03:17:36;0.50;99.90
10678;DHT22;5387;48.722;9.110;2023-03-03T03:20:03;0.50;99.90
10678;DHT22;5387;48.722;9.110;2023-03-03T03:22:30;0.60;99.90
10678;DHT22;5387;48.722;9.110;2023-03-03T03:24:57;0.60;99.90
10678;DHT22;5387;48.722;9.110;2023-03-03T03:27:24;0.70;99.90
10678;DHT22;5387;48.722;9.110;2023-03-03T03:29:51;0.80;99.90
10678;DHT22;5387;48.722;9.110;2023-03-03T03:32:18;0.90;99.90
10678;DHT22;5387;48.722;9.110;2023-03-03T03:34:46;0.90;99.90
10678;DHT22;5387;48.722;9.110;2023-03-03T03:37:13;1.00;99.90
10678;DHT22;5387;48.722;9.110;2023-03-03T03:39:39;1.00;99.90
10678;DHT22;5387;48.722;9.110;2023-03-03T03:42:06;1.00;99.90
10678;DHT22;5387;48.722;9.110;2023-03-03T03:44:33;1.10;99.90
10678;DHT22;5387;48.722;9.110;2023-03-03T03:47:00;1.20;99.90
10678;DHT22;5387;48.722;9.110;2023-03-03T03:49:27;1.30;99.90
10678;DHT22;5387;48.722;9.110;2023-03-03T03:51:55;1.20;99.90
10678;DHT22;5387;48.722;9.110;2023-03-03T03:54:22;1.30;99.90
10678;DHT22;5387;48.722;9.110;2023-03-03T03:56:49;1.40;99.90
10678;DHT22;5387;48.722;9.110;2023-03-03T03:59:15;1.60;99.90
10678;DHT22;5387;48.722;9.110;2023-03-03T04:01:42;1.60;99.90
10678;DHT22;5387;48.722;9.110;2023-03-03T04:04:09;1.60;99.90
10678;DHT22;5387;48.722;9.110;2023-03-03T04:06:36;1.70;99.90
10678;DHT22;5387;48.722;9.110;2023-03-03T04:09:04;1.80;99.90
10678;DHT22;5387;48.722;9.110;2023-03-03T04:11:31;1.80;99.90
10678;DHT22;5387;48.722;9.110;2023-03-03T04:13:58;1.80;99.90
10678;DHT22;5387;48.722;9.110;2023-03-03T04:16:25;2.00;99.90
10678;DHT22;5387;48.722;9.110;2023-03-03T04:18:52;2.00;99.90
10678;DHT22;5387;48.722;9.110;2023-03-03T04:21:19;2.00;99.90
10678;DHT22;5387;48.722;9.110;2023-03-03T04:23:46;2.10;99.90
10678;DHT22;5387;48.722;9.110;2023-03-03T04:26:14;2.10;99.90
10678;DHT22;5387;48.722;9.110;2023-03-03T04:28:41;2.30;99.90
10678;DHT22;5387;48.722;9.110;2023-03-03T04:31:07;2.30;99.90
10678;DHT22;5387;48.722;9.110;2023-03-03T04:33:34;2.40;99.90
10678;DHT22;5387;48.722;9.110;2023-03-03T04:36:01;2.30;99.90
10678;DHT22;5387;48.722;9.110;2023-03-03T04:38:28;2.20;99.90
10678;DHT22;5387;48.722;9.110;2023-03-03T04:40:55;2.10;99.90
10678;DHT22;5387;48.722;9.110;2023-03-03T04:43:23;2.30;99.90
10678;DHT22;5387;48.722;9.110;2023-03-03T04:45:50;2.40;99.90
10678;DHT22;5387;48.722;9.110;2023-03-03T04:48:17;2.20;99.90
10678;DHT22;5387;48.722;9.110;2023-03-03T04:50:44;2.00;99.90
10678;DHT22;5387;48.722;9.110;2023-03-03T04:53:11;1.90;99.90
10678;DHT22;5387;48.722;9.110;2023-03-03T04:55:37;2.00;99.90
10678;DHT22;5387;48.722;9.110;2023-03-03T04:58:04;1.80;99.90
10678;DHT22;5387;48.722;9.110;2023-03-03T05:00:33;1.90;99.90
10678;DHT22;5387;48.722;9.110;2023-03-03T05:03:00;2.00;99.90
10678;DHT22;5387;48.722;9.110;2023-03-03T05:05:27;2.00;99.90
10678;DHT22;5387;48.722;9.110;2023-03-03T05:07:53;1.90;99.90
10678;DHT22;5387;48.722;9.110;2023-03-03T05:10:20;1.90;99.90
10678;DHT22;5387;48.722;9.110;2023-03-03T05:12:47;1.90;99.90
10678;DHT22;5387;48.722;9.110;2023-03-03T05:15:14;1.80;99.90
10678;DHT22;5387;48.722;9.110;2023-03-03T05:17:42;1.80;99.90
10678;DHT22;5387;48.722;9.110;2023-03-03T05:20:10;1.70;99.90
10678;DHT22;5387;48.722;9.110;2023-03-03T05:22:37;1.70;99.90
10678;DHT22;5387;48.722;9.110;2023-03-03T05:25:05;1.80;99.90
10678;DHT22;5387;48.722;9.110;2023-03-03T05:27:33;1.90;99.90
10678;DHT22;5387;48.722;9.110;2023-03-03T05:30:00;2.00;99.90
10678;DHT22;5387;48.722;9.110;2023-03-03T05:32:27;2.10;99.90
10678;DHT22;5387;48.722;9.110;2023-03-03T05:34:55;2.20;99.90
10678;DHT22;5387;48.722;9.110;2023-03-03T05:37:22;2.30;99.90
10678;DHT22;5387;48.722;9.110;2023-03-03T05:39:49;2.20;99.90
10678;DHT22;5387;48.722;9.110;2023-03-03T05:42:15;2.20;99.90
10678;DHT22;5387;48.722;9.110;2023-03-03T05:44:42;2.20;99.90
10678;DHT22;5387;48.722;9.110;2023-03-03T05:47:09;2.10;99.90
10678;DHT22;5387;48.722;9.110;2023-03-03T05:49:36;2.30;99.90
10678;DHT22;5387;48.722;9.110;2023-03-03T05:52:05;2.40;99.90
10678;DHT22;5387;48.722;9.110;2023-03-03T05:54:32;2.20;99.90
10678;DHT22;5387;48.722;9.110;2023-03-03T05:56:58;2.10;99.90
10678;DHT22;5387;48.722;9.110;2023-03-03T05:59:25;2.10;99.90
10678;DHT22;5387;48.722;9.110;2023-03-03T06:01:52;2.30;99.90
10678;DHT22;5387;48.722;9.110;2023-03-03T06:04:19;2.10;99.90
10678;DHT22;5387;48.722;9.110;2023-03-03T06:06:45;2.00;99.90
10678;DHT22;5387;48.722;9.110;2023-03-03T06:09:13;1.90;99.90
10678;DHT22;5387;48.722;9.110;2023-03-03T06:11:43;1.80;99.90
10678;DHT22;5387;48.722;9.110;2023-03-03T06:14:10;1.90;99.90
10678;DHT22;5387;48.722;9.110;2023-03-03T06:16:36;1.80;99.90
10678;DHT22;5387;48.722;9.110;2023-03-03T06:19:04;1.80;99.90
10678;DHT22;5387;48.722;9.110;2023-03-03T06:21:31;1.80;99.90
10678;DHT22;5387;48.722;9.110;2023-03-03T06:23:57;1.80;99.90
10678;DHT22;5387;48.722;9.110;2023-03-03T06:26:25;1.90;99.90
10678;DHT22;5387;48.722;9.110;2023-03-03T06:28:52;1.80;99.90
10678;DHT22;5387;48.722;9.110;2023-03-03T06:31:19;1.90;99.90
10678;DHT22;5387;48.722;9.110;2023-03-03T06:33:46;1.80;99.90
10678;DHT22;5387;48.722;9.110;2023-03-03T06:36:13;1.80;99.90
10678;DHT22;5387;48.722;9.110;2023-03-03T06:38:40;1.90;99.90
10678;DHT22;5387;48.722;9.110;2023-03-03T06:41:07;1.90;99.90
10678;DHT22;5387;48.722;9.110;2023-03-03T06:43:35;1.80;99.90
10678;DHT22;5387;48.722;9.110;2023-03-03T06:46:03;1.80;99.90
10678;DHT22;5387;48.722;9.110;2023-03-03T06:48:30;1.80;99.90
10678;DHT22;5387;48.722;9.110;2023-03-03T06:50:58;1.80;99.90
10678;DHT22;5387;48.722;9.110;2023-03-03T06:53:26;1.80;99.90
10678;DHT22;5387;48.722;9.110;2023-03-03T06:55:54;1.70;99.90
10678;DHT22;5387;48.722;9.110;2023-03-03T06:58:22;1.70;99.90
10678;DHT22;5387;48.722;9.110;2023-03-03T07:00:55;1.70;99.90
10678;DHT22;5387;48.722;9.110;2023-03-03T07:03:23;1.70;99.90
10678;DHT22;5387;48.722;9.110;2023-03-03T07:05:51;1.80;99.90
10678;DHT22;5387;48.722;9.110;2023-03-03T07:08:20;1.90;99.90
10678;DHT22;5387;48.722;9.110;2023-03-03T07:10:49;2.00;99.90
10678;DHT22;5387;48.722;9.110;2023-03-03T07:13:19;2.10;99.90
10678;DHT22;5387;48.722;9.110;2023-03-03T07:15:47;2.10;99.90
10678;DHT22;5387;48.722;9.110;2023-03-03T07:18:30;2.00;99.90
10678;DHT22;5387;48.722;9.110;2023-03-03T07:21:14;1.90;99.90
10678;DHT22;5387;48.722;9.110;2023-03-03T07:23:42;2.00;99.90
10678;DHT22;5387;48.722;9.110;2023-03-03T07:26:12;2.20;99.90
10678;DHT22;5387;48.722;9.110;2023-03-03T07:28:40;2.10;99.90
10678;DHT22;5387;48.722;9.110;2023-03-03T07:31:24;2.00;99.90
10678;DHT22;5387;48.722;9.110;2023-03-03T07:33:54;1.90;99.90
10678;DHT22;5387;48.722;9.110;2023-03-03T07:36:26;1.80;99.90
10678;DHT22;5387;48.722;9.110;2023-03-03T07:38:56;1.80;99.90
10678;DHT22;5387;48.722;9.110;2023-03-03T07:41:24;1.90;99.90
10678;DHT22;5387;48.722;9.110;2023-03-03T07:43:52;2.00;99.90
10678;DHT22;5387;48.722;9.110;2023-03-03T07:46:26;1.90;99.90
10678;DHT22;5387;48.722;9.110;2023-03-03T07:48:56;2.00;99.90
10678;DHT22;5387;48.722;9.110;2023-03-03T07:51:25;2.10;99.90
10678;DHT22;5387;48.722;9.110;2023-03-03T07:53:53;2.40;99.90
10678;DHT22;5387;48.722;9.110;2023-03-03T07:56:26;2.50;99.90
10678;DHT22;5387;48.722;9.110;2023-03-03T07:58:54;2.50;99.90
10678;DHT22;5387;48.722;9.110;2023-03-03T08:01:35;2.70;99.90
10678;DHT22;5387;48.722;9.110;2023-03-03T08:04:21;3.00;99.90
10678;DHT22;5387;48.722;9.110;2023-03-03T08:06:51;3.10;99.90
10678;DHT22;5387;48.722;9.110;2023-03-03T08:09:43;3.50;99.90
10678;DHT22;5387;48.722;9.110;2023-03-03T08:12:28;3.50;99.90
10678;DHT22;5387;48.722;9.110;2023-03-03T08:15:10;3.80;99.90
10678;DHT22;5387;48.722;9.110;2023-03-03T08:17:38;3.90;99.90
10678;DHT22;5387;48.722;9.110;2023-03-03T08:20:41;4.10;99.90
10678;DHT22;5387;48.722;9.110;2023-03-03T08:23:09;3.90;99.90
10678;DHT22;5387;48.722;9.110;2023-03-03T08:25:36;3.80;99.90
10678;DHT22;5387;48.722;9.110;2023-03-03T08:28:04;4.00;99.90
10678;DHT22;5387;48.722;9.110;2023-03-03T08:30:30;4.00;99.90
10678;DHT22;5387;48.722;9.110;2023-03-03T08:32:57;3.80;99.90
10678;DHT22;5387;48.722;9.110;2023-03-03T08:35:25;3.50;99.90
10678;DHT22;5387;48.722;9.110;2023-03-03T08:37:52;3.70;99.90
10678;DHT22;5387;48.722;9.110;2023-03-03T08:40:19;3.90;99.90
10678;DHT22;5387;48.722;9.110;2023-03-03T08:42:46;4.10;99.90
10678;DHT22;5387;48.722;9.110;2023-03-03T08:45:13;4.10;99.90
10678;DHT22;5387;48.722;9.110;2023-03-03T08:47:40;4.00;99.90
10678;DHT22;5387;48.722;9.110;2023-03-03T08:50:08;3.90;99.90
10678;DHT22;5387;48.722;9.110;2023-03-03T08:52:36;3.90;99.90
10678;DHT22;5387;48.722;9.110;2023-03-03T08:55:03;3.80;99.90
10678;DHT22;5387;48.722;9.110;2023-03-03T08:57:30;4.00;99.90
10678;DHT22;5387;48.722;9.110;2023-03-03T08:59:57;4.30;99.90
10678;DHT22;5387;48.722;9.110;2023-03-03T09:02:23;4.50;99.90
10678;DHT22;5387;48.722;9.110;2023-03-03T09:04:51;4.70;99.90
10678;DHT22;5387;48.722;9.110;2023-03-03T09:07:18;5.00;99.90
10678;DHT22;5387;48.722;9.110;2023-03-03T09:09:46;5.20;99.90
10678;DHT22;5387;48.722;9.110;2023-03-03T09:12:16;4.90;99.90
10678;DHT22;5387;48.722;9.110;2023-03-03T09:14:43;4.70;99.90
10678;DHT22;5387;48.722;9.110;2023-03-03T09:17:24;4.80;99.90
10678;DHT22;5387;48.722;9.110;2023-03-03T09:19:51;5.00;99.90
10678;DHT22;5387;48.722;9.110;2023-03-03T09:22:21;5.00;99.90
10678;DHT22;5387;48.722;9.110;2023-03-03T09:24:52;5.00;99.90
10678;DHT22;5387;48.722;9.110;2023-03-03T09:27:26;4.80;99.90
10678;DHT22;5387;48.722;9.110;2023-03-03T09:29:53;4.80;99.90
10678;DHT22;5387;48.722;9.110;2023-03-03T09:32:30;4.90;99.90
10678;DHT22;5387;48.722;9.110;2023-03-03T09:34:59;4.90;99.90
10678;DHT22;5387;48.722;9.110;2023-03-03T09:37:28;4.90;99.90
10678;DHT22;5387;48.722;9.110;2023-03-03T09:39:58;5.00;99.90
10678;DHT22;5387;48.722;9.110;2023-03-03T09:45:42;5.30;99.90
10678;DHT22;5387;48.722;9.110;2023-03-03T09:48:27;5.20;99.90
10678;DHT22;5387;48.722;9.110;2023-03-03T09:51:06;5.10;99.90
10678;DHT22;5387;48.722;9.110;2023-03-03T09:53:45;5.20;99.90
10678;DHT22;5387;48.722;9.110;2023-03-03T09:56:20;5.30;99.90
10678;DHT22;5387;48.722;9.110;2023-03-03T09:59:00;5.50;99.90
10678;DHT22;5387;48.722;9.110;2023-03-03T10:01:42;5.70;99.90
10678;DHT22;5387;48.722;9.110;2023-03-03T10:04:20;5.90;99.90
10678;DHT22;5387;48.722;9.110;2023-03-03T10:06:55;5.90;99.90
10678;DHT22;5387;48.722;9.110;2023-03-03T10:09:45;6.00;99.90
10678;DHT22;5387;48.722;9.110;2023-03-03T10:12:19;5.90;99.90
10678;DHT22;5387;48.722;9.110;2023-03-03T10:17:48;6.20;99.90
10678;DHT22;5387;48.722;9.110;2023-03-03T10:20:29;6.30;99.90
10678;DHT22;5387;48.722;9.110;2023-03-03T10:23:05;6.60;99.90
10678;DHT22;5387;48.722;9.110;2023-03-03T10:25:40;6.50;99.90
10678;DHT22;5387;48.722;9.110;2023-03-03T10:28:39;6.50;99.90
10678;DHT22;5387;48.722;9.110;2023-03-03T10:31:15;6.90;99.90
10678;DHT22;5387;48.722;9.110;2023-03-03T10:33:50;7.00;99.90
10678;DHT22;5387;48.722;9.110;2023-03-03T10:36:26;7.10;99.90
10678;DHT22;5387;48.722;9.110;2023-03-03T10:39:03;7.00;99.90
10678;DHT22;5387;48.722;9.110;2023-03-03T10:41:53;7.10;99.90
10678;DHT22;5387;48.722;9.110;2023-03-03T10:44:45;6.80;99.90
10678;DHT22;5387;48.722;9.110;2023-03-03T10:47:43;6.70;99.90
10678;DHT22;5387;48.722;9.110;2023-03-03T10:50:20;7.00;99.90
10678;DHT22;5387;48.722;9.110;2023-03-03T10:52:51;7.30;99.90
10678;DHT22;5387;48.722;9.110;2023-03-03T10:55:35;7.50;99.90
10678;DHT22;5387;48.722;9.110;2023-03-03T10:58:24;7.50;99.90
10678;DHT22;5387;48.722;9.110;2023-03-03T11:01:01;7.40;99.90
10678;DHT22;5387;48.722;9.110;2023-03-03T11:06:53;7.00;99.90
10678;DHT22;5387;48.722;9.110;2023-03-03T11:09:33;6.80;99.90
10678;DHT22;5387;48.722;9.110;2023-03-03T11:12:15;7.00;99.90
10678;DHT22;5387;48.722;9.110;2023-03-03T11:14:49;7.40;99.90
10678;DHT22;5387;48.722;9.110;2023-03-03T11:17:23;7.30;99.90
10678;DHT22;5387;48.722;9.110;2023-03-03T11:20:00;7.50;99.90
10678;DHT22;5387;48.722;9.110;2023-03-03T11:22:41;7.70;99.90
10678;DHT22;5387;48.722;9.110;2023-03-03T11:25:22;7.80;99.90
10678;DHT22;5387;48.722;9.110;2023-03-03T11:33:38;8.50;99.90
10678;DHT22;5387;48.722;9.110;2023-03-03T11:36:12;8.60;99.90
10678;DHT22;5387;48.722;9.110;2023-03-03T11:38:50;8.90;99.90
10678;DHT22;5387;48.722;9.110;2023-03-03T11:41:29;9.30;99.90
10678;DHT22;5387;48.722;9.110;2023-03-03T11:44:02;8.80;99.90
10678;DHT22;5387;48.722;9.110;2023-03-03T11:46:35;8.40;99.90
10678;DHT22;5387;48.722;9.110;2023-03-03T11:49:08;8.60;99.90
10678;DHT22;5387;48.722;9.110;2023-03-03T11:51:46;8.10;99.90
10678;DHT22;5387;48.722;9.110;2023-03-03T11:54:19;7.90;99.90
10678;DHT22;5387;48.722;9.110;2023-03-03T11:56:48;8.10;99.90
10678;DHT22;5387;48.722;9.110;2023-03-03T11:59:47;8.10;99.90
10678;DHT22;5387;48.722;9.110;2023-03-03T12:02:26;8.30;99.90
10678;DHT22;5387;48.722;9.110;2023-03-03T12:04:59;8.70;99.90
10678;DHT22;5387;48.722;9.110;2023-03-03T12:07:35;8.50;99.90
10678;DHT22;5387;48.722;9.110;2023-03-03T12:10:13;8.20;99.90
10678;DHT22;5387;48.722;9.110;2023-03-03T12:12:44;8.30;99.90
10678;DHT22;5387;48.722;9.110;2023-03-03T12:15:26;8.50;99.90
10678;DHT22;5387;48.722;9.110;2023-03-03T12:18:03;8.60;99.90
10678;DHT22;5387;48.722;9.110;2023-03-03T12:20:41;8.30;99.90
10678;DHT22;5387;48.722;9.110;2023-03-03T12:23:20;8.20;99.90
10678;DHT22;5387;48.722;9.110;2023-03-03T12:25:57;7.90;99.90
10678;DHT22;5387;48.722;9.110;2023-03-03T12:28:30;8.30;99.90
10678;DHT22;5387;48.722;9.110;2023-03-03T12:31:08;8.20;99.90
10678;DHT22;5387;48.722;9.110;2023-03-03T12:33:50;7.90;99.90
10678;DHT22;5387;48.722;9.110;2023-03-03T12:36:35;7.70;99.90
10678;DHT22;5387;48.722;9.110;2023-03-03T12:39:14;7.80;99.90
10678;DHT22;5387;48.722;9.110;2023-03-03T12:41:49;8.20;99.90
10678;DHT22;5387;48.722;9.110;2023-03-03T12:44:23;7.90;99.90
10678;DHT22;5387;48.722;9.110;2023-03-03T12:46:55;7.90;99.90
10678;DHT22;5387;48.722;9.110;2023-03-03T12:49:32;8.00;99.90
10678;DHT22;5387;48.722;9.110;2023-03-03T12:52:12;8.10;99.90
10678;DHT22;5387;48.722;9.110;2023-03-03T12:54:52;8.40;99.90
10678;DHT22;5387;48.722;9.110;2023-03-03T12:57:24;8.00;99.90
10678;DHT22;5387;48.722;9.110;2023-03-03T13:00:13;7.90;99.90
10678;DHT22;5387;48.722;9.110;2023-03-03T13:02:50;7.80;99.90
10678;DHT22;5387;48.722;9.110;2023-03-03T13:05:27;7.80;99.90
10678;DHT22;5387;48.722;9.110;2023-03-03T13:08:15;7.80;99.90
10678;DHT22;5387;48.722;9.110;2023-03-03T13:10:47;8.10;99.90
10678;DHT22;5387;48.722;9.110;2023-03-03T13:13:19;8.30;99.90
10678;DHT22;5387;48.722;9.110;2023-03-03T13:15:56;8.40;99.90
10678;DHT22;5387;48.722;9.110;2023-03-03T13:18:33;8.30;99.90
10678;DHT22;5387;48.722;9.110;2023-03-03T13:21:08;8.20;99.90
10678;DHT22;5387;48.722;9.110;2023-03-03T13:23:42;8.30;99.90
10678;DHT22;5387;48.722;9.110;2023-03-03T13:26:18;8.10;99.90
10678;DHT22;5387;48.722;9.110;2023-03-03T13:28:58;8.10;99.90
10678;DHT22;5387;48.722;9.110;2023-03-03T13:31:32;8.20;99.90
10678;DHT22;5387;48.722;9.110;2023-03-03T13:34:00;8.20;99.90
10678;DHT22;5387;48.722;9.110;2023-03-03T13:36:32;8.10;99.90
10678;DHT22;5387;48.722;9.110;2023-03-03T13:39:11;7.90;99.90
10678;DHT22;5387;48.722;9.110;2023-03-03T13:41:44;7.90;99.90
10678;DHT22;5387;48.722;9.110;2023-03-03T13:44:17;7.70;99.90
10678;DHT22;5387;48.722;9.110;2023-03-03T13:46:54;7.80;99.90
10678;DHT22;5387;48.722;9.110;2023-03-03T13:49:45;8.00;99.90
10678;DHT22;5387;48.722;9.110;2023-03-03T13:52:19;8.00;99.90
10678;DHT22;5387;48.722;9.110;2023-03-03T13:57:53;8.00;99.90
10678;DHT22;5387;48.722;9.110;2023-03-03T14:00:29;8.10;99.90
10678;DHT22;5387;48.722;9.110;2023-03-03T14:03:21;8.10;99.90
10678;DHT22;5387;48.722;9.110;2023-03-03T14:05:56;8.10;99.90
10678;DHT22;5387;48.722;9.110;2023-03-03T14:08:41;8.10;99.90
10678;DHT22;5387;48.722;9.110;2023-03-03T14:11:16;8.00;99.90
10678;DHT22;5387;48.722;9.110;2023-03-03T14:13:52;8.00;99.90
10678;DHT22;5387;48.722;9.110;2023-03-03T14:16:38;8.00;99.90
10678;DHT22;5387;48.722;9.110;2023-03-03T14:19:13;7.70;99.90
10678;DHT22;5387;48.722;9.110;2023-03-03T14:21:50;7.70;99.90
10678;DHT22;5387;48.722;9.110;2023-03-03T14:24:19;7.70;99.90
10678;DHT22;5387;48.722;9.110;2023-03-03T14:26:49;7.70;99.90
10678;DHT22;5387;48.722;9.110;2023-03-03T14:29:20;7.80;99.90
10678;DHT22;5387;48.722;9.110;2023-03-03T14:31:47;7.90;99.90
10678;DHT22;5387;48.722;9.110;2023-03-03T14:34:29;7.80;99.90
10678;DHT22;5387;48.722;9.110;2023-03-03T14:37:18;7.70;99.90
10678;DHT22;5387;48.722;9.110;2023-03-03T14:39:50;7.70;99.90
10678;DHT22;5387;48.722;9.110;2023-03-03T14:42:35;7.60;99.90
10678;DHT22;5387;48.722;9.110;2023-03-03T14:45:19;7.70;99.90
10678;DHT22;5387;48.722;9.110;2023-03-03T14:47:46;7.70;99.90
10678;DHT22;5387;48.722;9.110;2023-03-03T14:50:35;7.70;99.90
10678;DHT22;5387;48.722;9.110;2023-03-03T14:53:10;7.70;99.90
10678;DHT22;5387;48.722;9.110;2023-03-03T14:55:38;7.60;99.90
10678;DHT22;5387;48.722;9.110;2023-03-03T14:58:27;7.70;99.90
10678;DHT22;5387;48.722;9.110;2023-03-03T15:01:22;7.60;99.90
10678;DHT22;5387;48.722;9.110;2023-03-03T15:03:59;7.60;99.90
10678;DHT22;5387;48.722;9.110;2023-03-03T15:06:32;7.60;99.90
10678;DHT22;5387;48.722;9.110;2023-03-03T15:09:19;7.50;99.90
10678;DHT22;5387;48.722;9.110;2023-03-03T15:11:47;7.50;99.90
10678;DHT22;5387;48.722;9.110;2023-03-03T15:14:19;7.50;99.90
10678;DHT22;5387;48.722;9.110;2023-03-03T15:16:46;7.50;99.90
10678;DHT22;5387;48.722;9.110;2023-03-03T15:19:37;7.60;99.90
10678;DHT22;5387;48.722;9.110;2023-03-03T15:22:15;7.70;99.90
10678;DHT22;5387;48.722;9.110;2023-03-03T15:24:48;7.70;99.90
10678;DHT22;5387;48.722;9.110;2023-03-03T15:27:21;7.60;99.90
10678;DHT22;5387;48.722;9.110;2023-03-03T15:29:59;7.60;99.90
10678;DHT22;5387;48.722;9.110;2023-03-03T15:32:32;7.70;99.90
10678;DHT22;5387;48.722;9.110;2023-03-03T15:35:09;7.60;99.90
10678;DHT22;5387;48.722;9.110;2023-03-03T15:37:45;7.60;99.90
10678;DHT22;5387;48.722;9.110;2023-03-03T15:40:21;7.50;99.90
10678;DHT22;5387;48.722;9.110;2023-03-03T15:42:56;7.50;99.90
10678;DHT22;5387;48.722;9.110;2023-03-03T15:45:31;7.80;99.90
10678;DHT22;5387;48.722;9.110;2023-03-03T15:48:22;7.50;99.90
10678;DHT22;5387;48.722;9.110;2023-03-03T15:50:58;7.50;99.90
10678;DHT22;5387;48.722;9.110;2023-03-03T15:53:38;7.60;99.90
10678;DHT22;5387;48.722;9.110;2023-03-03T15:56:23;7.60;99.90
10678;DHT22;5387;48.722;9.110;2023-03-03T15:59:14;7.60;99.90
10678;DHT22;5387;48.722;9.110;2023-03-03T16:01:50;7.50;99.90
10678;DHT22;5387;48.722;9.110;2023-03-03T16:04:20;7.60;99.90
10678;DHT22;5387;48.722;9.110;2023-03-03T16:06:58;7.40;99.90
10678;DHT22;5387;48.722;9.110;2023-03-03T16:09:40;7.30;99.90
10678;DHT22;5387;48.722;9.110;2023-03-03T16:12:16;7.40;99.90
10678;DHT22;5387;48.722;9.110;2023-03-03T16:14:57;7.30;99.90
10678;DHT22;5387;48.722;9.110;2023-03-03T16:17:34;7.40;99.90
10678;DHT22;5387;48.722;9.110;2023-03-03T16:20:13;7.30;99.90
10678;DHT22;5387;48.722;9.110;2023-03-03T16:22:57;7.20;99.90
10678;DHT22;5387;48.722;9.110;2023-03-03T16:25:35;7.20;99.90
10678;DHT22;5387;48.722;9.110;2023-03-03T16:28:09;7.10;99.90
10678;DHT22;5387;48.722;9.110;2023-03-03T16:30:47;7.20;99.90
10678;DHT22;5387;48.722;9.110;2023-03-03T16:33:26;7.10;99.90
10678;DHT22;5387;48.722;9.110;2023-03-03T16:36:02;7.10;99.90
10678;DHT22;5387;48.722;9.110;2023-03-03T16:38:37;7.10;99.90
10678;DHT22;5387;48.722;9.110;2023-03-03T16:41:09;7.00;99.90
10678;DHT22;5387;48.722;9.110;2023-03-03T16:43:45;7.10;99.90
10678;DHT22;5387;48.722;9.110;2023-03-03T16:46:28;7.00;99.90
10678;DHT22;5387;48.722;9.110;2023-03-03T16:49:02;6.90;99.90
10678;DHT22;5387;48.722;9.110;2023-03-03T16:51:38;6.80;99.90